createdAt,value
2017-06-12T00:00:40.552Z,67.29
2017-06-12T00:01:21.200Z,67.67
2017-06-12T00:02:02.404Z,67.38
2017-06-12T00:02:45.133Z,67.51
2017-06-12T00:03:25.724Z,67.03
2017-06-12T00:04:08.369Z,67.09
2017-06-12T00:04:48.900Z,67
2017-06-12T00:05:29.479Z,67.19
2017-06-12T00:06:10.082Z,67.32
2017-06-12T00:06:50.693Z,66.71
2017-06-12T00:07:31.243Z,66.84
2017-06-12T00:08:11.804Z,66.9
2017-06-12T00:08:53.422Z,66.8
2017-06-12T00:09:34.005Z,66.71
2017-06-12T00:10:14.667Z,66.71
2017-06-12T00:10:55.201Z,66.55
2017-06-12T00:11:36.779Z,66.74
2017-06-12T00:12:18.353Z,66.64
2017-06-12T00:13:04.634Z,66.46
2017-06-12T00:13:45.202Z,66.36
2017-06-12T00:14:25.742Z,66.26
2017-06-12T00:15:06.289Z,65.88
2017-06-12T00:15:46.842Z,66.23
2017-06-12T00:16:27.389Z,66.23
2017-06-12T00:17:07.953Z,66.16
2017-06-12T00:17:48.593Z,66.55
2017-06-12T00:18:29.168Z,66.07
2017-06-12T00:19:09.809Z,66.36
2017-06-12T00:19:50.441Z,65.97
2017-06-12T00:20:30.964Z,66.16
2017-06-12T00:21:11.575Z,65.78
2017-06-12T00:21:52.165Z,65.78
2017-06-12T00:22:32.756Z,65.97
2017-06-12T00:23:13.280Z,65.2
2017-06-12T00:23:54.912Z,65.49
2017-06-12T00:24:35.506Z,65.69
2017-06-12T00:25:16.095Z,65.01
2017-06-12T00:25:56.623Z,64.92
2017-06-12T00:26:37.219Z,64.63
2017-06-12T00:27:17.816Z,64.92
2017-06-12T00:28:03.219Z,64.63
2017-06-12T00:28:43.731Z,64.43
2017-06-12T00:29:24.313Z,64.15
2017-06-12T00:30:05.945Z,64.05
2017-06-12T00:30:46.492Z,63.96
2017-06-12T00:31:27.046Z,63.57
2017-06-12T00:32:08.618Z,63.67
2017-06-12T00:32:50.202Z,63.57
2017-06-12T00:33:30.740Z,63.28
2017-06-12T00:34:12.318Z,62.99
2017-06-12T00:34:53.922Z,62.52
2017-06-12T00:35:34.455Z,62.61
2017-06-12T00:36:15.052Z,62.23
2017-06-12T00:36:55.575Z,62.32
2017-06-12T00:37:36.108Z,62.13
2017-06-12T00:38:17.764Z,61.94
2017-06-12T00:38:58.365Z,61.65
2017-06-12T00:39:38.917Z,61.46
2017-06-12T00:40:19.500Z,61.27
2017-06-12T00:41:01.099Z,60.98
2017-06-12T00:41:42.710Z,60.88
2017-06-12T00:42:23.250Z,60.78
2017-06-12T00:43:03.836Z,60.98
2017-06-12T00:43:44.453Z,60.69
2017-06-12T00:44:25.126Z,60.21
2017-06-12T00:45:05.654Z,59.92
2017-06-12T00:45:48.297Z,60.11
2017-06-12T00:46:28.900Z,60.02
2017-06-12T00:47:09.489Z,59.83
2017-06-12T00:47:50.025Z,60.02
2017-06-12T00:48:31.631Z,59.64
2017-06-12T00:49:12.211Z,59.54
2017-06-12T00:49:52.805Z,59.34
2017-06-12T00:50:33.358Z,59.34
2017-06-12T00:51:14.025Z,59.34
2017-06-12T00:51:54.655Z,59.06
2017-06-12T00:52:47.192Z,58.48
2017-06-12T00:53:30.514Z,59.12
2017-06-12T00:54:18.188Z,59.12
2017-06-12T00:54:59.722Z,58.26
2017-06-12T00:55:40.328Z,58.64
2017-06-12T00:56:20.927Z,58.26
2017-06-12T00:57:01.455Z,58.36
2017-06-12T00:57:42.029Z,58.45
2017-06-12T00:58:22.625Z,58.17
2017-06-12T00:59:03.221Z,57.88
2017-06-12T00:59:43.743Z,57.97
2017-06-12T01:00:24.358Z,57.3
2017-06-12T01:01:05.905Z,57.5
2017-06-12T01:01:46.461Z,57.59
2017-06-12T01:02:28.054Z,57.11
2017-06-12T01:03:08.685Z,57.01
2017-06-12T01:03:50.261Z,56.92
2017-06-12T01:04:30.832Z,56.63
2017-06-12T01:05:11.467Z,56.44
2017-06-12T01:05:53.060Z,56.63
2017-06-12T01:06:33.705Z,56.63
2017-06-12T01:07:14.240Z,56.44
2017-06-12T01:07:54.794Z,56.53
2017-06-12T01:08:37.379Z,56.44
2017-06-12T01:09:17.950Z,56.24
2017-06-12T01:09:58.511Z,56.15
2017-06-12T01:10:40.083Z,56.05
2017-06-12T01:11:21.694Z,56.15
2017-06-12T01:12:03.324Z,55.57
2017-06-12T01:12:44.889Z,55.47
2017-06-12T01:13:30.081Z,55.47
2017-06-12T01:14:10.722Z,55.38
2017-06-12T01:14:52.298Z,55.35
2017-06-12T01:15:32.881Z,55.47
2017-06-12T01:16:13.460Z,55.55
2017-06-12T01:16:53.978Z,55.55
2017-06-12T01:17:34.597Z,55.38
2017-06-12T01:18:15.178Z,55.47
2017-06-12T01:18:55.765Z,55.26
2017-06-12T01:19:36.292Z,55.26
2017-06-12T01:20:17.917Z,55.45
2017-06-12T01:20:58.721Z,55.26
2017-06-12T01:21:39.266Z,55.45
2017-06-12T01:22:19.792Z,55.45
2017-06-12T01:23:00.327Z,55.55
2017-06-12T01:23:40.864Z,55.45
2017-06-12T01:24:21.462Z,55.45
2017-06-12T01:25:02.013Z,55.55
2017-06-12T01:25:42.564Z,55.35
2017-06-12T01:26:24.149Z,55.26
2017-06-12T01:27:04.693Z,55.45
2017-06-12T01:27:45.303Z,54.97
2017-06-12T01:28:25.868Z,55.26
2017-06-12T01:29:06.491Z,54.97
2017-06-12T01:29:47.016Z,55.45
2017-06-12T01:30:28.645Z,54.88
2017-06-12T01:31:09.238Z,55.35
2017-06-12T01:31:49.815Z,55.26
2017-06-12T01:32:30.341Z,54.68
2017-06-12T01:33:10.937Z,54.88
2017-06-12T01:33:51.523Z,54.88
2017-06-12T01:34:32.055Z,55.26
2017-06-12T01:35:12.704Z,54.88
2017-06-12T01:35:58.237Z,54.78
2017-06-12T01:36:38.774Z,55.26
2017-06-12T01:37:21.406Z,55.26
2017-06-12T01:38:02.966Z,55.64
2017-06-12T01:38:43.496Z,55.64
2017-06-12T01:39:24.091Z,55.16
2017-06-12T01:40:05.642Z,55.26
2017-06-12T01:40:46.152Z,55.45
2017-06-12T01:41:26.756Z,55.45
2017-06-12T01:42:07.294Z,55.26
2017-06-12T01:42:47.856Z,55.13
2017-06-12T01:43:28.378Z,55.35
2017-06-12T01:44:11.016Z,55.33
2017-06-12T01:44:52.568Z,55.33
2017-06-12T01:45:33.082Z,55.42
2017-06-12T01:46:13.711Z,55.33
2017-06-12T01:46:55.314Z,55.55
2017-06-12T01:47:35.838Z,55.45
2017-06-12T01:48:17.429Z,55.52
2017-06-12T01:48:58.054Z,55.23
2017-06-12T01:49:38.629Z,55.55
2017-06-12T01:50:21.295Z,55.45
2017-06-12T01:51:02.627Z,55.55
2017-06-12T01:51:43.206Z,55.64
2017-06-12T01:52:23.806Z,55.55
2017-06-12T01:53:04.403Z,55.55
2017-06-12T01:53:44.969Z,55.42
2017-06-12T01:54:26.539Z,55.33
2017-06-12T01:55:07.056Z,55.52
2017-06-12T01:55:48.649Z,55.33
2017-06-12T01:56:29.155Z,55.9
2017-06-12T01:57:09.769Z,56
2017-06-12T01:57:50.293Z,56.19
2017-06-12T01:58:30.804Z,56.09
2017-06-12T01:59:11.437Z,56.38
2017-06-12T01:59:52.118Z,56.29
2017-06-12T02:00:32.766Z,56.96
2017-06-12T02:01:13.321Z,56.48
2017-06-12T02:01:53.933Z,56.57
2017-06-12T02:02:35.514Z,56.67
2017-06-12T02:03:16.175Z,56.86
2017-06-12T02:03:57.937Z,57.15
2017-06-12T02:04:38.500Z,56.96
2017-06-12T02:05:20.055Z,57.63
2017-06-12T02:06:01.688Z,57.63
2017-06-12T02:06:43.306Z,57.53
2017-06-12T02:07:23.833Z,57.5
2017-06-12T02:08:04.389Z,58.27
2017-06-12T02:08:44.918Z,58.08
2017-06-12T02:09:25.526Z,57.98
2017-06-12T02:10:06.073Z,58.17
2017-06-12T02:10:46.699Z,58.27
2017-06-12T02:11:27.225Z,58.56
2017-06-12T02:12:09.777Z,58.84
2017-06-12T02:12:50.360Z,59.04
2017-06-12T02:13:30.877Z,58.94
2017-06-12T02:14:12.491Z,59.42
2017-06-12T02:14:53.013Z,59.61
2017-06-12T02:15:33.654Z,59.8
2017-06-12T02:16:14.292Z,59.71
2017-06-12T02:16:56.907Z,59.8
2017-06-12T02:17:37.564Z,60
2017-06-12T02:18:18.286Z,60.28
2017-06-12T02:19:04.495Z,60.67
2017-06-12T02:19:45.099Z,60.86
2017-06-12T02:20:25.751Z,60.86
2017-06-12T02:21:06.308Z,60.96
2017-06-12T02:21:47.642Z,61.05
2017-06-12T02:22:28.209Z,61.34
2017-06-12T02:23:08.761Z,60.96
2017-06-12T02:23:55.353Z,61.63
2017-06-12T02:24:40.810Z,61.24
2017-06-12T02:25:21.358Z,61.43
2017-06-12T02:26:07.508Z,61.63
2017-06-12T02:26:49.081Z,61.53
2017-06-12T02:27:29.618Z,61.91
2017-06-12T02:28:11.211Z,62.01
2017-06-12T02:28:51.755Z,62.01
2017-06-12T02:29:32.312Z,62.1
2017-06-12T02:30:13.873Z,62.01
2017-06-12T02:30:55.483Z,61.72
2017-06-12T02:31:36.100Z,61.72
2017-06-12T02:32:18.714Z,61.72
2017-06-12T02:32:59.258Z,61.63
2017-06-12T02:33:39.835Z,62.01
2017-06-12T02:34:21.395Z,61.82
2017-06-12T02:35:02.959Z,62.1
2017-06-12T02:35:44.519Z,61.72
2017-06-12T02:36:25.041Z,61.72
2017-06-12T02:37:10.540Z,61.63
2017-06-12T02:37:52.089Z,62.1
2017-06-12T02:38:32.635Z,61.82
2017-06-12T02:39:13.262Z,62.1
2017-06-12T02:39:55.910Z,62.2
2017-06-12T02:40:36.466Z,62.1
2017-06-12T02:41:17.116Z,62.2
2017-06-12T02:41:57.673Z,62.2
2017-06-12T02:42:38.220Z,62.07
2017-06-12T02:43:18.764Z,62.46
2017-06-12T02:43:59.299Z,62.2
2017-06-12T02:44:39.867Z,62.65
2017-06-12T02:45:20.396Z,62.55
2017-06-12T02:46:00.976Z,62.46
2017-06-12T02:46:41.572Z,62.93
2017-06-12T02:47:22.166Z,62.93
2017-06-12T02:48:02.683Z,63.42
2017-06-12T02:48:43.279Z,63.42
2017-06-12T02:49:23.888Z,63.22
2017-06-12T02:50:04.477Z,63.42
2017-06-12T02:50:44.989Z,63.8
2017-06-12T02:51:25.586Z,63.42
2017-06-12T02:52:08.232Z,63.51
2017-06-12T02:52:49.847Z,63.89
2017-06-12T02:53:30.370Z,63.8
2017-06-12T02:54:12.007Z,64.09
2017-06-12T02:54:54.650Z,64.56
2017-06-12T02:55:35.212Z,64.25
2017-06-12T02:56:15.758Z,64.15
2017-06-12T02:56:57.378Z,64.63
2017-06-12T02:57:39.015Z,64.25
2017-06-12T02:58:20.611Z,64.82
2017-06-12T02:59:01.164Z,64.82
2017-06-12T02:59:41.889Z,64.63
2017-06-12T03:00:23.466Z,65.01
2017-06-12T03:01:04.008Z,64.92
2017-06-12T03:01:44.614Z,65.01
2017-06-12T03:02:26.269Z,65.01
2017-06-12T03:03:06.795Z,64.63
2017-06-12T03:03:47.402Z,65.11
2017-06-12T03:04:30.067Z,65.11
2017-06-12T03:05:10.594Z,65.11
2017-06-12T03:05:52.239Z,65.2
2017-06-12T03:06:34.871Z,65.3
2017-06-12T03:07:17.488Z,65.11
2017-06-12T03:07:58.013Z,65.39
2017-06-12T03:08:43.558Z,65.3
2017-06-12T03:09:24.133Z,65.49
2017-06-12T03:10:04.706Z,65.2
2017-06-12T03:10:45.259Z,65.2
2017-06-12T03:11:25.915Z,65.2
2017-06-12T03:12:07.490Z,65.11
2017-06-12T03:12:48.143Z,65.68
2017-06-12T03:13:28.695Z,65.78
2017-06-12T03:14:09.342Z,65.68
2017-06-12T03:14:50.917Z,65.58
2017-06-12T03:15:31.568Z,65.68
2017-06-12T03:16:12.223Z,65.49
2017-06-12T03:16:53.795Z,65.88
2017-06-12T03:17:34.346Z,65.97
2017-06-12T03:18:14.897Z,65.88
2017-06-12T03:18:55.448Z,65.78
2017-06-12T03:19:37.023Z,66.16
2017-06-12T03:20:17.572Z,65.97
2017-06-12T03:20:58.100Z,65.97
2017-06-12T03:21:38.755Z,66.16
2017-06-12T03:22:21.381Z,66.16
2017-06-12T03:23:01.932Z,66.16
2017-06-12T03:23:43.535Z,66.25
2017-06-12T03:24:24.150Z,66.22
2017-06-12T03:25:04.697Z,66.54
2017-06-12T03:25:46.301Z,66.51
2017-06-12T03:26:27.915Z,66.32
2017-06-12T03:27:13.212Z,66.74
2017-06-12T03:27:53.744Z,66.64
2017-06-12T03:28:34.335Z,66.74
2017-06-12T03:29:15.989Z,66.8
2017-06-12T03:29:56.543Z,66.7
2017-06-12T03:30:37.074Z,66.74
2017-06-12T03:31:17.691Z,66.99
2017-06-12T03:31:59.223Z,66.8
2017-06-12T03:32:39.765Z,66.83
2017-06-12T03:33:20.366Z,66.74
2017-06-12T03:34:00.974Z,66.7
2017-06-12T03:34:41.497Z,66.64
2017-06-12T03:35:22.135Z,67.11
2017-06-12T03:36:03.758Z,67.02
2017-06-12T03:36:44.404Z,67.27
2017-06-12T03:37:24.968Z,66.83
2017-06-12T03:38:05.603Z,66.83
2017-06-12T03:38:46.165Z,66.8
2017-06-12T03:39:27.745Z,66.74
2017-06-12T03:40:08.279Z,66.74
2017-06-12T03:40:48.828Z,66.74
2017-06-12T03:41:31.458Z,66.74
2017-06-12T03:42:14.097Z,66.74
2017-06-12T03:42:54.681Z,66.83
2017-06-12T03:43:35.230Z,66.74
2017-06-12T03:44:16.852Z,66.93
2017-06-12T03:44:57.419Z,66.83
2017-06-12T03:45:39.960Z,66.64
2017-06-12T03:46:20.505Z,66.93
2017-06-12T03:47:06.010Z,66.74
2017-06-12T03:47:46.566Z,66.83
2017-06-12T03:48:28.138Z,66.74
2017-06-12T03:49:08.767Z,66.74
2017-06-12T03:49:49.344Z,66.83
2017-06-12T03:50:31.931Z,67.02
2017-06-12T03:51:14.535Z,67.02
2017-06-12T03:51:55.162Z,67.21
2017-06-12T03:52:37.770Z,66.83
2017-06-12T03:53:18.335Z,67.41
2017-06-12T03:54:03.629Z,67.31
2017-06-12T03:54:44.254Z,67.31
2017-06-12T03:55:24.807Z,67.31
2017-06-12T03:56:07.374Z,67.21
2017-06-12T03:56:47.908Z,66.93
2017-06-12T03:57:28.507Z,67.21
2017-06-12T03:58:09.128Z,67.02
2017-06-12T03:58:49.654Z,67.31
2017-06-12T03:59:30.238Z,67.11
2017-06-12T04:00:10.888Z,67.5
2017-06-12T04:00:51.406Z,67.79
2017-06-12T04:01:32.009Z,67.79
2017-06-12T04:02:13.580Z,67.6
2017-06-12T04:02:54.129Z,67.88
2017-06-12T04:03:34.689Z,67.79
2017-06-12T04:04:17.277Z,67.98
2017-06-12T04:04:57.839Z,67.88
2017-06-12T04:05:39.404Z,67.88
2017-06-12T04:06:19.995Z,67.79
2017-06-12T04:07:06.218Z,67.69
2017-06-12T04:07:46.745Z,67.69
2017-06-12T04:08:28.364Z,67.6
2017-06-12T04:09:13.922Z,67.5
2017-06-12T04:09:55.503Z,67.69
2017-06-12T04:10:36.023Z,67.41
2017-06-12T04:11:16.616Z,67.6
2017-06-12T04:11:57.243Z,67.69
2017-06-12T04:12:37.770Z,67.69
2017-06-12T04:13:19.393Z,67.6
2017-06-12T04:14:04.733Z,67.6
2017-06-12T04:14:45.263Z,68.07
2017-06-12T04:15:25.845Z,67.6
2017-06-12T04:16:07.414Z,67.79
2017-06-12T04:16:47.939Z,67.79
2017-06-12T04:17:28.558Z,68.07
2017-06-12T04:18:09.122Z,68.07
2017-06-12T04:18:49.724Z,67.79
2017-06-12T04:19:30.245Z,67.88
2017-06-12T04:20:10.828Z,67.6
2017-06-12T04:20:51.430Z,67.79
2017-06-12T04:21:31.977Z,67.79
2017-06-12T04:22:12.528Z,67.79
2017-06-12T04:22:53.076Z,67.98
2017-06-12T04:23:33.628Z,68.07
2017-06-12T04:24:15.206Z,67.79
2017-06-12T04:24:57.799Z,68.07
2017-06-12T04:25:38.452Z,67.88
2017-06-12T04:26:19.056Z,67.98
2017-06-12T04:26:59.593Z,68.17
2017-06-12T04:27:40.172Z,68.27
2017-06-12T04:28:21.795Z,67.88
2017-06-12T04:29:02.376Z,67.88
2017-06-12T04:29:42.913Z,68.07
2017-06-12T04:30:23.523Z,67.88
2017-06-12T04:31:04.085Z,68.07
2017-06-12T04:31:45.667Z,68.07
2017-06-12T04:32:26.228Z,67.88
2017-06-12T04:33:06.863Z,67.88
2017-06-12T04:33:49.465Z,67.69
2017-06-12T04:34:30.029Z,67.79
2017-06-12T04:35:11.593Z,67.72
2017-06-12T04:35:52.146Z,68.01
2017-06-12T04:36:32.786Z,67.63
2017-06-12T04:37:14.371Z,67.25
2017-06-12T04:37:56.978Z,67.25
2017-06-12T04:38:37.619Z,66.96
2017-06-12T04:39:18.276Z,67.18
2017-06-12T04:39:58.835Z,67.09
2017-06-12T04:40:40.399Z,66.89
2017-06-12T04:41:22.020Z,66.71
2017-06-12T04:42:02.547Z,66.99
2017-06-12T04:42:43.165Z,66.42
2017-06-12T04:43:25.784Z,66.13
2017-06-12T04:44:06.373Z,66.8
2017-06-12T04:44:46.904Z,66.89
2017-06-12T04:45:28.517Z,66.89
2017-06-12T04:46:09.169Z,66.99
2017-06-12T04:46:49.755Z,66.89
2017-06-12T04:47:31.345Z,66.71
2017-06-12T04:48:17.932Z,66.8
2017-06-12T04:48:58.577Z,66.89
2017-06-12T04:49:39.119Z,66.71
2017-06-12T04:50:19.677Z,66.06
2017-06-12T04:51:00.200Z,66.35
2017-06-12T04:51:40.734Z,66.26
2017-06-12T04:52:22.304Z,65.68
2017-06-12T04:53:02.829Z,65.88
2017-06-12T04:53:43.433Z,65.68
2017-06-12T04:54:24.052Z,65.97
2017-06-12T04:55:04.696Z,65.88
2017-06-12T04:55:45.280Z,65.78
2017-06-12T04:56:25.906Z,66.26
2017-06-12T04:57:06.459Z,66.16
2017-06-12T04:57:48.060Z,66.06
2017-06-12T04:58:28.683Z,66.35
2017-06-12T04:59:09.295Z,66.64
2017-06-12T04:59:50.850Z,66.64
2017-06-12T05:00:32.493Z,67.12
2017-06-12T05:01:14.064Z,67.12
2017-06-12T05:01:54.722Z,67.32
2017-06-12T05:02:41.310Z,67.32
2017-06-12T05:03:23.920Z,66.93
2017-06-12T05:04:11.322Z,67.12
2017-06-12T05:04:51.971Z,67.12
2017-06-12T05:05:32.622Z,66.93
2017-06-12T05:06:13.196Z,67.22
2017-06-12T05:06:53.851Z,67.6
2017-06-12T05:07:34.485Z,67.32
2017-06-12T05:08:15.037Z,67.41
2017-06-12T05:08:55.587Z,67.41
2017-06-12T05:09:37.171Z,67.32
2017-06-12T05:10:17.817Z,67.41
2017-06-12T05:10:58.356Z,67.41
2017-06-12T05:11:39.965Z,67.41
2017-06-12T05:12:20.547Z,67.41
2017-06-12T05:13:01.151Z,67.6
2017-06-12T05:13:41.683Z,67.63
2017-06-12T05:14:22.245Z,67.54
2017-06-12T05:15:02.873Z,67.54
2017-06-12T05:15:43.447Z,67.63
2017-06-12T05:16:23.989Z,67.44
2017-06-12T05:17:04.590Z,67.16
2017-06-12T05:17:45.226Z,67.16
2017-06-12T05:18:25.790Z,67.25
2017-06-12T05:19:07.402Z,67.16
2017-06-12T05:19:48.012Z,67.54
2017-06-12T05:20:30.624Z,67.44
2017-06-12T05:21:11.255Z,67.73
2017-06-12T05:21:56.712Z,67.25
2017-06-12T05:22:37.264Z,67.54
2017-06-12T05:23:17.801Z,67.44
2017-06-12T05:23:58.389Z,67.35
2017-06-12T05:24:39.944Z,67.44
2017-06-12T05:25:25.118Z,67.44
2017-06-12T05:26:05.691Z,67.73
2017-06-12T05:26:46.288Z,67.73
2017-06-12T05:27:26.827Z,67.73
2017-06-12T05:28:07.405Z,67.35
2017-06-12T05:28:48.000Z,67.35
2017-06-12T05:29:28.607Z,67.96
2017-06-12T05:30:09.143Z,67.73
2017-06-12T05:30:49.696Z,67.92
2017-06-12T05:31:30.259Z,67.83
2017-06-12T05:32:10.812Z,68.02
2017-06-12T05:32:51.364Z,67.92
2017-06-12T05:33:31.922Z,67.92
2017-06-12T05:34:12.466Z,68.12
2017-06-12T05:34:54.058Z,68.05
2017-06-12T05:35:35.633Z,67.86
2017-06-12T05:36:17.197Z,67.96
2017-06-12T05:36:57.737Z,67.92
2017-06-12T05:37:40.334Z,68.15
2017-06-12T05:38:21.909Z,68.02
2017-06-12T05:39:02.513Z,68.12
2017-06-12T05:39:44.245Z,67.92
2017-06-12T05:40:24.789Z,68.02
2017-06-12T05:41:05.359Z,68.02
2017-06-12T05:41:45.991Z,67.83
2017-06-12T05:42:26.539Z,67.47
2017-06-12T05:43:07.113Z,67.38
2017-06-12T05:43:47.762Z,67.19
2017-06-12T05:44:28.421Z,67.57
2017-06-12T05:45:09.035Z,67
2017-06-12T05:45:49.594Z,67.47
2017-06-12T05:46:31.172Z,67.19
2017-06-12T05:47:11.723Z,67.29
2017-06-12T05:47:53.311Z,67.29
2017-06-12T05:48:33.850Z,67
2017-06-12T05:49:14.402Z,67.09
2017-06-12T05:49:54.950Z,67.19
2017-06-12T05:50:37.543Z,67.09
2017-06-12T05:51:18.099Z,67.19
2017-06-12T05:51:58.649Z,67.19
2017-06-12T05:52:39.223Z,67.09
2017-06-12T05:53:20.773Z,67.03
2017-06-12T05:54:01.351Z,67.13
2017-06-12T05:54:43.919Z,67.03
2017-06-12T05:55:24.508Z,66.84
2017-06-12T05:56:05.150Z,67.13
2017-06-12T05:56:45.728Z,67.03
2017-06-12T05:57:31.323Z,67.13
2017-06-12T05:58:11.871Z,67.19
2017-06-12T05:58:53.479Z,67.29
2017-06-12T05:59:34.080Z,67.38
2017-06-12T06:00:14.657Z,67.57
2017-06-12T06:00:55.180Z,67.92
2017-06-12T06:01:35.789Z,68.02
2017-06-12T06:02:16.333Z,68.5
2017-06-12T06:02:56.882Z,68.4
2017-06-12T06:03:38.467Z,68.59
2017-06-12T06:04:19.021Z,68.5
2017-06-12T06:05:01.617Z,68.79
2017-06-12T06:05:43.175Z,68.21
2017-06-12T06:06:23.773Z,68.69
2017-06-12T06:07:04.368Z,68.88
2017-06-12T06:07:44.868Z,68.98
2017-06-12T06:08:25.476Z,69.23
2017-06-12T06:09:06.085Z,69.04
2017-06-12T06:09:51.280Z,69.33
2017-06-12T06:10:31.812Z,69.33
2017-06-12T06:11:12.406Z,69.04
2017-06-12T06:11:52.956Z,69.13
2017-06-12T06:12:33.501Z,68.85
2017-06-12T06:13:15.082Z,69.46
2017-06-12T06:13:55.640Z,69.13
2017-06-12T06:14:36.186Z,69.36
2017-06-12T06:15:17.783Z,69.07
2017-06-12T06:15:58.451Z,69.07
2017-06-12T06:16:39.005Z,68.88
2017-06-12T06:17:19.591Z,68.88
2017-06-12T06:18:00.141Z,69.36
2017-06-12T06:18:41.746Z,69.07
2017-06-12T06:19:22.329Z,69.26
2017-06-12T06:20:02.924Z,69.26
2017-06-12T06:20:43.462Z,69.46
2017-06-12T06:21:24.048Z,69.36
2017-06-12T06:22:04.675Z,68.98
2017-06-12T06:22:45.200Z,69.17
2017-06-12T06:23:26.108Z,68.5
2017-06-12T06:24:06.736Z,68.88
2017-06-12T06:24:47.259Z,68.53
2017-06-12T06:25:27.871Z,67.86
2017-06-12T06:26:08.391Z,67.86
2017-06-12T06:26:49.116Z,67.96
2017-06-12T06:27:29.813Z,67.47
2017-06-12T06:28:10.634Z,67.19
2017-06-12T06:28:52.251Z,67.47
2017-06-12T06:29:32.779Z,67.38
2017-06-12T06:30:13.347Z,67.29
2017-06-12T06:30:53.898Z,67.13
2017-06-12T06:31:34.489Z,66.64
2017-06-12T06:32:15.089Z,66.07
2017-06-12T06:32:55.652Z,66.36
2017-06-12T06:33:38.270Z,66.36
2017-06-12T06:34:18.808Z,66.07
2017-06-12T06:35:01.404Z,65.69
2017-06-12T06:35:41.941Z,65.49
2017-06-12T06:36:22.505Z,65.49
2017-06-12T06:37:03.041Z,64.92
2017-06-12T06:37:43.629Z,65.3
2017-06-12T06:38:24.278Z,65.01
2017-06-12T06:39:04.806Z,65.01
2017-06-12T06:39:45.368Z,65.01
2017-06-12T06:40:25.949Z,64.82
2017-06-12T06:41:08.579Z,64.53
2017-06-12T06:41:49.191Z,64.43
2017-06-12T06:42:30.763Z,64.34
2017-06-12T06:43:11.325Z,63.99
2017-06-12T06:43:51.914Z,64.09
2017-06-12T06:44:32.426Z,63.89
2017-06-12T06:45:13.977Z,63.89
2017-06-12T06:45:54.558Z,63.22
2017-06-12T06:46:35.136Z,63.41
2017-06-12T06:47:15.656Z,63.32
2017-06-12T06:47:56.290Z,63.02
2017-06-12T06:48:36.817Z,63.02
2017-06-12T06:49:17.367Z,62.84
2017-06-12T06:49:57.916Z,62.64
2017-06-12T06:50:38.455Z,62.74
2017-06-12T06:51:19.006Z,62.55
2017-06-12T06:51:59.607Z,62.84
2017-06-12T06:52:40.220Z,62.55
2017-06-12T06:53:20.786Z,61.97
2017-06-12T06:54:01.339Z,61.81
2017-06-12T06:54:41.972Z,61.81
2017-06-12T06:55:22.569Z,61.87
2017-06-12T06:56:05.147Z,61.97
2017-06-12T06:56:45.673Z,62.35
2017-06-12T06:57:26.295Z,61.91
2017-06-12T06:58:06.905Z,62.16
2017-06-12T06:58:47.513Z,62.07
2017-06-12T06:59:28.020Z,62.35
2017-06-12T07:00:09.659Z,62.55
2017-06-12T07:00:50.247Z,62.55
2017-06-12T07:01:30.803Z,62.55
2017-06-12T07:02:12.382Z,62.55
2017-06-12T07:02:54.065Z,62.55
2017-06-12T07:03:35.626Z,62.74
2017-06-12T07:04:16.190Z,63.02
2017-06-12T07:04:56.740Z,63.38
2017-06-12T07:05:43.937Z,63.48
2017-06-12T07:06:25.562Z,63.57
2017-06-12T07:07:06.176Z,63.51
2017-06-12T07:07:46.785Z,63.38
2017-06-12T07:08:27.385Z,63.02
2017-06-12T07:09:07.978Z,63.12
2017-06-12T07:09:48.514Z,63.12
2017-06-12T07:10:30.134Z,62.84
2017-06-12T07:11:10.810Z,62.84
2017-06-12T07:11:51.398Z,62.35
2017-06-12T07:12:31.960Z,62.74
2017-06-12T07:13:12.532Z,62.64
2017-06-12T07:13:53.125Z,62.35
2017-06-12T07:14:34.728Z,62.55
2017-06-12T07:15:15.244Z,62.55
2017-06-12T07:15:55.849Z,62.26
2017-06-12T07:16:36.435Z,62.35
2017-06-12T07:17:17.038Z,62.45
2017-06-12T07:17:57.586Z,62.45
2017-06-12T07:18:38.154Z,62.64
2017-06-12T07:19:20.794Z,62.64
2017-06-12T07:20:01.406Z,62.84
2017-06-12T07:20:41.913Z,62.84
2017-06-12T07:21:24.554Z,62.55
2017-06-12T07:22:05.148Z,62.74
2017-06-12T07:22:46.662Z,62.74
2017-06-12T07:23:27.184Z,62.84
2017-06-12T07:24:07.792Z,63.02
2017-06-12T07:24:48.366Z,63.02
2017-06-12T07:25:29.017Z,62.64
2017-06-12T07:26:09.529Z,62.84
2017-06-12T07:26:51.120Z,62.64
2017-06-12T07:27:37.087Z,62.84
2017-06-12T07:28:17.714Z,63.38
2017-06-12T07:28:58.250Z,63.48
2017-06-12T07:29:38.857Z,63.57
2017-06-12T07:30:21.482Z,63.38
2017-06-12T07:31:06.914Z,63.86
2017-06-12T07:31:47.441Z,63.38
2017-06-12T07:32:28.061Z,63.38
2017-06-12T07:33:09.692Z,62.84
2017-06-12T07:33:52.284Z,62.55
2017-06-12T07:34:32.839Z,62.64
2017-06-12T07:35:13.396Z,62.35
2017-06-12T07:36:00.728Z,61.87
2017-06-12T07:36:48.111Z,61.52
2017-06-12T07:37:28.660Z,61.61
2017-06-12T07:38:10.236Z,60.94
2017-06-12T07:38:50.784Z,61.14
2017-06-12T07:39:32.358Z,60.37
2017-06-12T07:40:13.935Z,60.11
2017-06-12T07:40:55.509Z,60.11
2017-06-12T07:41:36.141Z,59.72
2017-06-12T07:42:16.659Z,59.53
2017-06-12T07:42:57.247Z,59.44
2017-06-12T07:43:37.883Z,59.34
2017-06-12T07:44:18.412Z,59.05
2017-06-12T07:45:00.042Z,58.76
2017-06-12T07:45:40.664Z,58.86
2017-06-12T07:46:23.266Z,58.86
2017-06-12T07:47:03.830Z,58.76
2017-06-12T07:47:46.416Z,58.95
2017-06-12T07:48:31.781Z,58.89
2017-06-12T07:49:17.342Z,58.37
2017-06-12T07:49:57.894Z,58.37
2017-06-12T07:50:40.501Z,58.76
2017-06-12T07:51:21.009Z,59.24
2017-06-12T07:52:01.613Z,59.5
2017-06-12T07:52:48.807Z,59.5
2017-06-12T07:53:29.381Z,59.69
2017-06-12T07:54:10.955Z,59.69
2017-06-12T07:54:51.573Z,59.99
2017-06-12T07:55:32.236Z,59.24
2017-06-12T07:56:12.808Z,59.02
2017-06-12T07:57:06.002Z,59.15
2017-06-12T07:57:46.594Z,59.12
2017-06-12T07:58:27.106Z,59.12
2017-06-12T07:59:07.728Z,59.31
2017-06-12T07:59:49.389Z,59.22
2017-06-12T08:00:30.018Z,59.69
2017-06-12T08:01:10.574Z,59.89
2017-06-12T08:01:53.222Z,60.27
2017-06-12T08:02:35.775Z,60.37
2017-06-12T08:03:21.141Z,60.17
2017-06-12T08:04:07.786Z,60.05
2017-06-12T08:04:49.407Z,60.14
2017-06-12T08:05:32.107Z,60.53
2017-06-12T08:06:25.688Z,60.72
2017-06-12T08:07:12.146Z,61.08
2017-06-12T08:07:59.690Z,61.2
2017-06-12T08:08:52.112Z,60.82
2017-06-12T08:09:33.672Z,61.2
2017-06-12T08:10:14.208Z,61.55
2017-06-12T08:10:56.852Z,61.55
2017-06-12T08:11:42.224Z,62.13
2017-06-12T08:12:22.857Z,61.84
2017-06-12T08:13:03.445Z,62.61
2017-06-12T08:13:48.675Z,62.42
2017-06-12T08:14:35.174Z,62.71
2017-06-12T08:15:26.702Z,63.06
2017-06-12T08:16:12.141Z,63.38
2017-06-12T08:16:57.735Z,63.45
2017-06-12T08:17:50.136Z,63.28
2017-06-12T08:18:30.784Z,62.99
2017-06-12T08:19:11.926Z,62.71
2017-06-12T08:19:53.495Z,62.32
2017-06-12T08:20:36.149Z,62.32
2017-06-12T08:21:18.731Z,61.87
2017-06-12T08:21:59.378Z,61.87
2017-06-12T08:22:40.943Z,61.3
2017-06-12T08:23:23.553Z,60.72
2017-06-12T08:24:04.256Z,60.91
2017-06-12T08:24:45.891Z,60.56
2017-06-12T08:25:27.447Z,59.99
2017-06-12T08:26:14.654Z,59.99
2017-06-12T08:26:55.200Z,59.69
2017-06-12T08:27:46.704Z,59.47
2017-06-12T08:28:28.269Z,59.19
2017-06-12T08:29:20.629Z,59.76
2017-06-12T08:30:01.273Z,59.86
2017-06-12T08:30:53.691Z,59.28
2017-06-12T08:31:36.317Z,59.28
2017-06-12T08:32:17.020Z,59.28
2017-06-12T08:32:57.564Z,58.99
2017-06-12T08:33:38.367Z,58.7
2017-06-12T08:34:19.952Z,58.61
2017-06-12T08:35:06.393Z,58.61
2017-06-12T08:35:46.918Z,58.32
2017-06-12T08:36:29.519Z,58.13
2017-06-12T08:37:16.673Z,58.13
2017-06-12T08:37:58.399Z,58.15
2017-06-12T08:38:39.351Z,57.48
2017-06-12T08:39:19.967Z,57.48
2017-06-12T08:40:01.544Z,57.58
2017-06-12T08:40:43.184Z,56.81
2017-06-12T08:41:23.760Z,57
2017-06-12T08:42:09.126Z,56.23
2017-06-12T08:42:54.695Z,56.43
2017-06-12T08:43:40.186Z,55.37
2017-06-12T08:44:21.749Z,55.56
2017-06-12T08:45:02.399Z,55.73
2017-06-12T08:45:43.971Z,55.05
2017-06-12T08:46:25.534Z,55.24
2017-06-12T08:47:08.231Z,55.73
2017-06-12T08:47:48.763Z,54.96
2017-06-12T08:48:29.297Z,55.34
2017-06-12T08:49:14.694Z,54.89
2017-06-12T08:49:56.319Z,54.99
2017-06-12T08:50:36.894Z,55.08
2017-06-12T08:51:17.435Z,54.6
2017-06-12T08:51:58.018Z,54.02
2017-06-12T08:52:38.570Z,53.74
2017-06-12T08:53:19.146Z,53.06
2017-06-12T08:53:59.797Z,53.16
2017-06-12T08:54:42.370Z,52.58
2017-06-12T08:55:23.134Z,52.39